Time;durP1;ratioP1;P1;durP2;ratioP2;P2;SDS_P1;SDS_P2;PMS_P1;PMS_P2;Temp;Humidity;BMP_temperature;BMP_pressure;BME280_temperature;BME280_humidity;BME280_pressure;Samples;Min_cycle;Max_cycle;Signal;HPM_P1;HPM_P2
2022/01/24 00:00:11;;;;;;;;;;;4.00;99.90;;;;;;4977112;28;19911;-79
2022/01/24 00:02:38;;;;;;;;;;;4.00;99.90;;;;;;4977062;28;20017;-79
2022/01/24 00:05:04;;;;;;;;;;;4.00;99.90;;;;;;4991865;28;20398;-79
2022/01/24 00:07:29;;;;;;;;;;;4.00;99.90;;;;;;4976669;28;19956;-78
2022/01/24 00:09:59;;;;;;;;;;;4.00;99.90;;;;;;4976888;28;19937;-79
2022/01/24 00:28:04;;;;;;;;;;;4.30;99.90;;;;;;4976711;28;19957;-79
2022/01/24 00:30:30;;;;;;;;;;;4.30;99.90;;;;;;4976546;28;20019;-79
2022/01/24 00:32:56;;;;;;;;;;;4.30;99.90;;;;;;4976425;28;19933;-79
2022/01/24 00:35:21;;;;;;;;;;;4.20;99.90;;;;;;4976426;28;20255;-79
2022/01/24 00:37:47;;;;;;;;;;;4.20;99.90;;;;;;4976389;28;20005;-79
2022/01/24 00:40:13;;;;;;;;;;;4.20;99.90;;;;;;4976295;28;19914;-79
2022/01/24 00:45:13;;;;;;;;;;;4.20;99.90;;;;;;4976501;28;19917;-79
2022/01/24 00:55:37;;;;;;;;;;;4.00;99.90;;;;;;4975806;28;19918;-79
2022/01/24 00:58:03;;;;;;;;;;;4.00;99.90;;;;;;4976097;28;20370;-79
2022/01/24 01:00:28;;;;;;;;;;;3.90;99.90;;;;;;4975901;28;19910;-79
2022/01/24 01:02:54;;;;;;;;;;;4.00;99.90;;;;;;4976199;28;19910;-79
2022/01/24 01:18:47;;;;;;;;;;;4.00;99.90;;;;;;4974782;28;19969;-79
2022/01/24 01:21:15;;;;;;;;;;;4.00;99.90;;;;;;4975808;28;19913;-79
2022/01/24 01:23:45;;;;;;;;;;;4.00;99.90;;;;;;4975575;28;20370;-79
2022/01/24 01:26:21;;;;;;;;;;;3.90;99.90;;;;;;4975470;28;19910;-79
2022/01/24 01:28:50;;;;;;;;;;;4.00;99.90;;;;;;4975679;28;19917;-79
2022/01/24 01:31:29;;;;;;;;;;;3.90;99.90;;;;;;4975424;28;19917;-80
2022/01/24 01:36:37;;;;;;;;;;;3.90;99.90;;;;;;4975584;28;19910;-79
2022/01/24 01:52:50;;;;;;;;;;;4.10;99.90;;;;;;4975194;28;19956;-79
2022/01/24 01:55:35;;;;;;;;;;;4.00;99.90;;;;;;4974678;28;19914;-78
2022/01/24 01:58:01;;;;;;;;;;;4.00;99.90;;;;;;4989597;28;19922;-78
2022/01/24 02:00:27;;;;;;;;;;;4.00;99.90;;;;;;4975061;28;20366;-80
2022/01/24 02:02:52;;;;;;;;;;;4.00;99.90;;;;;;4975003;28;19968;-79
2022/01/24 02:05:18;;;;;;;;;;;4.00;99.90;;;;;;4974970;28;20330;-79
2022/01/24 02:07:44;;;;;;;;;;;4.10;99.90;;;;;;4975107;28;19910;-79
2022/01/24 02:10:10;;;;;;;;;;;4.20;99.90;;;;;;4974968;28;20274;-79
2022/01/24 02:12:35;;;;;;;;;;;4.30;99.90;;;;;;4975008;28;20001;-79
2022/01/24 02:15:01;;;;;;;;;;;4.20;99.90;;;;;;4975312;28;19911;-79
2022/01/24 02:17:39;;;;;;;;;;;4.20;99.90;;;;;;4975096;28;19918;-79
2022/01/24 02:20:25;;;;;;;;;;;4.30;99.90;;;;;;4957238;28;19910;-79
2022/01/24 02:23:14;;;;;;;;;;;4.30;99.90;;;;;;4975323;28;19917;-79
2022/01/24 02:25:37;;;;;;;;;;;4.30;99.90;;;;;;4974699;28;20278;-79
2022/01/24 02:28:04;;;;;;;;;;;4.30;99.90;;;;;;4974699;28;19914;-78
2022/01/24 02:33:04;;;;;;;;;;;4.30;99.90;;;;;;4978408;28;19917;-79
2022/01/24 02:35:30;;;;;;;;;;;4.20;99.90;;;;;;4978909;28;19910;-79
2022/01/24 02:37:58;;;;;;;;;;;4.20;99.90;;;;;;4978732;28;19914;-79
2022/01/24 02:40:25;;;;;;;;;;;4.10;99.90;;;;;;4961155;28;20290;-79
2022/01/24 02:48:24;;;;;;;;;;;3.90;99.90;;;;;;4978153;28;20061;-79
2022/01/24 02:53:35;;;;;;;;;;;3.60;99.90;;;;;;4978532;28;19917;-79
2022/01/24 02:56:02;;;;;;;;;;;3.60;99.90;;;;;;4978124;28;20267;-79
2022/01/24 02:58:28;;;;;;;;;;;3.40;99.90;;;;;;4978159;28;19914;-79
2022/01/24 03:00:54;;;;;;;;;;;3.40;99.90;;;;;;4978325;28;19914;-79
2022/01/24 03:03:19;;;;;;;;;;;3.30;99.90;;;;;;4978198;28;19911;-79
2022/01/24 03:05:45;;;;;;;;;;;3.20;99.90;;;;;;4978126;28;19910;-79
2022/01/24 03:08:12;;;;;;;;;;;3.20;99.90;;;;;;4978209;28;19946;-79
2022/01/24 03:10:44;;;;;;;;;;;3.20;99.90;;;;;;4960633;28;19911;-79
2022/01/24 03:15:49;;;;;;;;;;;3.10;99.90;;;;;;4978451;28;20395;-79
2022/01/24 03:18:15;;;;;;;;;;;3.10;99.90;;;;;;4977800;28;19914;-79
2022/01/24 03:20:41;;;;;;;;;;;3.10;99.90;;;;;;4978037;28;19917;-79
2022/01/24 03:23:07;;;;;;;;;;;3.00;99.90;;;;;;4977787;28;19910;-79
2022/01/24 03:25:32;;;;;;;;;;;2.90;99.90;;;;;;4977785;28;20006;-79
2022/01/24 03:27:58;;;;;;;;;;;2.80;99.90;;;;;;4977708;28;19917;-79
2022/01/24 03:30:24;;;;;;;;;;;2.90;99.90;;;;;;4977755;28;19910;-79
2022/01/24 03:32:50;;;;;;;;;;;3.00;99.90;;;;;;4977620;28;20068;-79
2022/01/24 03:35:16;;;;;;;;;;;3.10;99.90;;;;;;4977956;28;19961;-79
2022/01/24 03:37:42;;;;;;;;;;;3.10;99.90;;;;;;4976216;28;19920;-79
2022/01/24 03:40:08;;;;;;;;;;;3.00;99.90;;;;;;4977489;28;19910;-79
2022/01/24 03:42:33;;;;;;;;;;;3.00;99.90;;;;;;4976818;28;19917;-79
2022/01/24 03:45:03;;;;;;;;;;;3.00;99.90;;;;;;4977386;28;19981;-79
2022/01/24 03:50:01;;;;;;;;;;;2.80;99.90;;;;;;4977440;28;20458;-79
2022/01/24 03:52:30;;;;;;;;;;;2.80;99.90;;;;;;4977173;28;19914;-79
2022/01/24 03:54:56;;;;;;;;;;;2.70;99.90;;;;;;4977397;28;19910;-79
2022/01/24 03:57:21;;;;;;;;;;;2.80;99.90;;;;;;4976663;28;19922;-79
2022/01/24 03:59:47;;;;;;;;;;;2.70;99.90;;;;;;4977224;28;20002;-79
2022/01/24 04:02:13;;;;;;;;;;;2.60;99.90;;;;;;4977110;28;19914;-79
2022/01/24 04:04:39;;;;;;;;;;;2.50;99.90;;;;;;4977030;28;19954;-79
2022/01/24 04:07:05;;;;;;;;;;;2.50;99.90;;;;;;4977000;28;20412;-79
2022/01/24 04:09:30;;;;;;;;;;;2.60;99.90;;;;;;4977186;28;20385;-79
2022/01/24 04:11:58;;;;;;;;;;;2.60;99.90;;;;;;4977079;28;19976;-79
2022/01/24 04:14:30;;;;;;;;;;;2.70;99.90;;;;;;4959512;28;19925;-79
2022/01/24 04:22:12;;;;;;;;;;;2.60;99.90;;;;;;4976448;28;20317;-79
2022/01/24 04:24:38;;;;;;;;;;;2.50;99.90;;;;;;4976889;28;19910;-79
2022/01/24 04:27:04;;;;;;;;;;;2.50;99.90;;;;;;4976875;28;20350;-79
2022/01/24 04:29:30;;;;;;;;;;;2.50;99.90;;;;;;4976588;28;19917;-79
2022/01/24 04:31:55;;;;;;;;;;;2.50;99.90;;;;;;4959191;28;19917;-79
2022/01/24 04:34:21;;;;;;;;;;;2.40;99.90;;;;;;4976511;28;19910;-79
2022/01/24 04:36:47;;;;;;;;;;;2.50;99.90;;;;;;4976420;28;19917;-79
2022/01/24 04:39:14;;;;;;;;;;;2.60;99.90;;;;;;4976683;28;20369;-79
2022/01/24 04:41:44;;;;;;;;;;;2.60;99.90;;;;;;4976513;28;19917;-79
2022/01/24 04:44:44;;;;;;;;;;;2.50;99.90;;;;;;4976414;28;20000;-79
2022/01/24 04:54:48;;;;;;;;;;;1.90;99.90;;;;;;4975318;28;19910;-79
2022/01/24 04:57:27;;;;;;;;;;;2.00;99.90;;;;;;4975644;28;20378;-79
2022/01/24 04:59:54;;;;;;;;;;;2.00;99.90;;;;;;4976015;28;19918;-79
2022/01/24 05:02:21;;;;;;;;;;;1.90;99.90;;;;;;4976100;28;19910;-79
2022/01/24 05:04:46;;;;;;;;;;;1.90;99.90;;;;;;4976152;28;20391;-79
2022/01/24 05:07:12;;;;;;;;;;;1.80;99.90;;;;;;4975933;28;19949;-79
2022/01/24 05:09:55;;;;;;;;;;;1.90;99.90;;;;;;4975833;28;20393;-79
2022/01/24 05:12:32;;;;;;;;;;;1.90;99.90;;;;;;4976028;28;20294;-79
2022/01/24 05:25:50;;;;;;;;;;;1.70;99.90;;;;;;5152312;27;19907;-78
2022/01/24 05:28:16;;;;;;;;;;;1.60;99.90;;;;;;5152471;27;20397;-79
2022/01/24 05:30:42;;;;;;;;;;;1.60;99.90;;;;;;5133904;27;19907;-79
2022/01/24 05:33:07;;;;;;;;;;;1.50;99.90;;;;;;5152304;27;19918;-78
2022/01/24 05:35:33;;;;;;;;;;;1.50;99.90;;;;;;5152318;27;19930;-79
2022/01/24 05:37:58;;;;;;;;;;;1.50;99.90;;;;;;5133775;27;19915;-79
2022/01/24 05:40:24;;;;;;;;;;;1.40;99.90;;;;;;5152280;27;19911;-79
2022/01/24 05:42:50;;;;;;;;;;;1.50;99.90;;;;;;5152283;27;19907;-78
2022/01/24 05:45:15;;;;;;;;;;;1.60;99.90;;;;;;5152244;27;20367;-79
2022/01/24 05:47:41;;;;;;;;;;;1.60;99.90;;;;;;5133511;27;19907;-78
2022/01/24 05:50:07;;;;;;;;;;;1.70;99.90;;;;;;5152050;27;19919;-79
2022/01/24 05:52:33;;;;;;;;;;;1.70;99.90;;;;;;5146022;27;19998;-78
2022/01/24 05:54:58;;;;;;;;;;;1.80;99.90;;;;;;5131474;28;19912;-79
2022/01/24 05:57:24;;;;;;;;;;;1.60;99.90;;;;;;5131362;28;20356;-79
2022/01/24 05:59:50;;;;;;;;;;;1.40;99.90;;;;;;5131211;28;19915;-78
2022/01/24 06:02:15;;;;;;;;;;;1.30;99.90;;;;;;5131157;28;19908;-79
2022/01/24 06:04:41;;;;;;;;;;;1.20;99.90;;;;;;5131129;28;20389;-79
2022/01/24 06:07:07;;;;;;;;;;;1.30;99.90;;;;;;5131093;28;19977;-79
2022/01/24 06:09:32;;;;;;;;;;;1.40;99.90;;;;;;5112633;28;19914;-78
2022/01/24 06:11:58;;;;;;;;;;;1.50;99.90;;;;;;5112547;28;19914;-79
2022/01/24 06:14:23;;;;;;;;;;;1.60;99.90;;;;;;5112327;28;20292;-78
2022/01/24 06:16:49;;;;;;;;;;;1.70;99.90;;;;;;5130873;28;20295;-79
2022/01/24 06:19:15;;;;;;;;;;;1.50;99.90;;;;;;5130873;28;20384;-79
2022/01/24 06:21:40;;;;;;;;;;;1.30;99.90;;;;;;5130875;28;19907;-78
2022/01/24 06:24:06;;;;;;;;;;;1.30;99.90;;;;;;5112344;28;19919;-78
2022/01/24 06:26:32;;;;;;;;;;;1.50;99.90;;;;;;5116471;28;19908;-78
2022/01/24 06:28:57;;;;;;;;;;;1.50;99.90;;;;;;5117429;28;19908;-78
2022/01/24 06:31:23;;;;;;;;;;;1.50;99.90;;;;;;5116883;28;19908;-79
2022/01/24 06:33:48;;;;;;;;;;;1.50;99.90;;;;;;5117066;28;20003;-79
2022/01/24 06:36:15;;;;;;;;;;;1.40;99.90;;;;;;5116831;28;19914;-79
2022/01/24 06:38:41;;;;;;;;;;;1.30;99.90;;;;;;5116815;28;19908;-79
2022/01/24 06:41:06;;;;;;;;;;;1.20;99.90;;;;;;5116708;28;20371;-79
2022/01/24 06:43:32;;;;;;;;;;;1.10;99.90;;;;;;5116841;28;20002;-78
2022/01/24 06:45:57;;;;;;;;;;;1.10;99.90;;;;;;5116651;28;19915;-79
2022/01/24 06:48:23;;;;;;;;;;;1.30;99.90;;;;;;5116664;28;20022;-79
2022/01/24 06:50:50;;;;;;;;;;;1.30;99.90;;;;;;5098226;28;19930;-79
2022/01/24 06:53:15;;;;;;;;;;;1.20;99.90;;;;;;5097952;28;19984;-78
2022/01/24 06:55:41;;;;;;;;;;;1.30;99.90;;;;;;5098053;28;19908;-79
2022/01/24 06:58:07;;;;;;;;;;;1.30;99.90;;;;;;5116371;28;19916;-79
2022/01/24 07:00:33;;;;;;;;;;;1.30;99.90;;;;;;5116381;28;19912;-78
2022/01/24 07:02:59;;;;;;;;;;;1.30;99.90;;;;;;5116216;28;19907;-79
2022/01/24 07:05:25;;;;;;;;;;;1.10;99.90;;;;;;5116244;28;19912;-78
2022/01/24 07:07:51;;;;;;;;;;;0.90;99.90;;;;;;5116177;28;19908;-79
2022/01/24 07:10:16;;;;;;;;;;;0.80;99.90;;;;;;5116276;28;19918;-79
2022/01/24 07:12:42;;;;;;;;;;;0.90;99.90;;;;;;5115929;28;20391;-79
2022/01/24 07:15:09;;;;;;;;;;;0.90;99.90;;;;;;5116127;28;20001;-79
2022/01/24 07:20:21;;;;;;;;;;;1.10;99.90;;;;;;5084290;28;19939;-78
2022/01/24 07:22:46;;;;;;;;;;;1.10;99.90;;;;;;5115969;28;19919;-79
2022/01/24 07:25:12;;;;;;;;;;;1.00;99.90;;;;;;5115836;28;19908;-78
2022/01/24 07:27:38;;;;;;;;;;;0.90;99.90;;;;;;5097529;28;19907;-78
2022/01/24 07:30:04;;;;;;;;;;;1.00;99.90;;;;;;5097489;28;19908;-79
2022/01/24 07:32:30;;;;;;;;;;;0.90;99.90;;;;;;5115654;28;19914;-79
2022/01/24 07:34:56;;;;;;;;;;;0.90;99.90;;;;;;5115546;28;20326;-79
2022/01/24 07:37:22;;;;;;;;;;;0.80;99.90;;;;;;5114908;28;20003;-79
2022/01/24 07:39:49;;;;;;;;;;;0.70;99.90;;;;;;5115589;28;19915;-79
2022/01/24 07:42:28;;;;;;;;;;;0.70;99.90;;;;;;5115535;28;20372;-79
2022/01/24 07:44:53;;;;;;;;;;;0.60;99.90;;;;;;5115937;28;20275;-78
2022/01/24 07:47:19;;;;;;;;;;;0.60;99.90;;;;;;5115418;28;19908;-79
2022/01/24 07:49:45;;;;;;;;;;;0.70;99.90;;;;;;5115345;28;19914;-79
2022/01/24 07:52:11;;;;;;;;;;;0.90;99.90;;;;;;5115291;28;19908;-79
2022/01/24 07:54:36;;;;;;;;;;;1.00;99.90;;;;;;5096948;28;20427;-78
2022/01/24 07:57:02;;;;;;;;;;;1.10;99.90;;;;;;5096929;28;19954;-79
2022/01/24 07:59:27;;;;;;;;;;;0.90;99.90;;;;;;5115387;28;20367;-79
2022/01/24 08:01:53;;;;;;;;;;;1.00;99.90;;;;;;5096876;28;19919;-78
2022/01/24 08:04:19;;;;;;;;;;;1.10;99.90;;;;;;5096759;28;20364;-79
2022/01/24 08:06:46;;;;;;;;;;;1.00;99.90;;;;;;5114976;28;19907;-79
2022/01/24 08:09:12;;;;;;;;;;;1.30;99.90;;;;;;5096687;28;20364;-79
2022/01/24 08:11:37;;;;;;;;;;;1.40;99.90;;;;;;5115095;28;19957;-79
2022/01/24 08:14:03;;;;;;;;;;;1.50;99.90;;;;;;5114833;28;19963;-79
2022/01/24 08:16:28;;;;;;;;;;;1.50;99.90;;;;;;5114834;28;19908;-79
2022/01/24 08:18:56;;;;;;;;;;;1.50;99.90;;;;;;5114787;28;19915;-79
2022/01/24 08:21:21;;;;;;;;;;;1.60;99.90;;;;;;5114669;28;20388;-79
2022/01/24 08:23:47;;;;;;;;;;;1.60;99.90;;;;;;5114622;28;19945;-79
2022/01/24 08:26:13;;;;;;;;;;;1.80;99.90;;;;;;5114739;28;19996;-79
2022/01/24 08:28:38;;;;;;;;;;;1.80;99.90;;;;;;5114409;28;19907;-78
2022/01/24 08:31:04;;;;;;;;;;;2.10;99.90;;;;;;5114593;28;19908;-79
2022/01/24 08:33:30;;;;;;;;;;;2.40;99.90;;;;;;5114690;28;19915;-79
2022/01/24 08:35:56;;;;;;;;;;;2.90;99.90;;;;;;5096244;28;19907;-79
2022/01/24 08:38:22;;;;;;;;;;;3.50;99.90;;;;;;5114521;28;19914;-79
2022/01/24 08:40:50;;;;;;;;;;;4.30;99.90;;;;;;5114447;28;19907;-79
2022/01/24 08:43:24;;;;;;;;;;;4.90;99.90;;;;;;5114435;28;19908;-79
2022/01/24 08:45:58;;;;;;;;;;;5.80;99.90;;;;;;5114646;28;19973;-79
2022/01/24 08:48:24;;;;;;;;;;;6.60;99.90;;;;;;5095598;28;19908;-79
2022/01/24 08:50:54;;;;;;;;;;;7.20;99.90;;;;;;5114723;28;19908;-79
2022/01/24 08:53:20;;;;;;;;;;;7.70;99.90;;;;;;5114145;28;20256;-80
2022/01/24 08:55:45;;;;;;;;;;;8.30;99.90;;;;;;5114479;28;19908;-79
2022/01/24 08:58:13;;;;;;;;;;;9.00;99.90;;;;;;5114348;28;20329;-80
2022/01/24 09:00:39;;;;;;;;;;;9.30;99.50;;;;;;5095911;28;19907;-80
2022/01/24 09:03:05;;;;;;;;;;;8.70;99.90;;;;;;5114288;28;19908;-80
2022/01/24 09:05:34;;;;;;;;;;;9.50;99.90;;;;;;5114153;28;19915;-79
2022/01/24 09:08:00;;;;;;;;;;;10.10;98.60;;;;;;5095885;28;20325;-80
2022/01/24 09:10:26;;;;;;;;;;;10.50;97.60;;;;;;5114047;28;20279;-80
2022/01/24 09:12:51;;;;;;;;;;;11.00;95.10;;;;;;5114133;28;19908;-80
2022/01/24 09:15:17;;;;;;;;;;;10.80;95.10;;;;;;5114386;28;19961;-80
2022/01/24 09:17:43;;;;;;;;;;;11.30;95.80;;;;;;5114002;28;19907;-80
2022/01/24 09:20:10;;;;;;;;;;;12.20;94.20;;;;;;5113965;28;19907;-80
2022/01/24 09:22:35;;;;;;;;;;;13.10;92.40;;;;;;5113902;28;20002;-80
2022/01/24 09:25:01;;;;;;;;;;;13.60;90.70;;;;;;5114147;28;20406;-80
2022/01/24 09:27:28;;;;;;;;;;;13.80;88.70;;;;;;5114185;28;20003;-80
2022/01/24 09:29:54;;;;;;;;;;;13.90;87.50;;;;;;5095611;28;19937;-80
2022/01/24 09:32:20;;;;;;;;;;;14.40;85.90;;;;;;5114023;28;19914;-80
2022/01/24 09:34:45;;;;;;;;;;;13.80;85.30;;;;;;5113814;28;19912;-80
2022/01/24 09:37:11;;;;;;;;;;;13.00;86.60;;;;;;5095576;28;19961;-80
2022/01/24 09:39:37;;;;;;;;;;;12.10;90.40;;;;;;5113951;28;20002;-80
2022/01/24 09:42:02;;;;;;;;;;;11.70;91.40;;;;;;5113964;28;19915;-80
2022/01/24 09:44:28;;;;;;;;;;;12.20;91.90;;;;;;5113799;28;19929;-80
2022/01/24 09:46:53;;;;;;;;;;;12.50;90.50;;;;;;5113698;28;20015;-80
2022/01/24 09:49:19;;;;;;;;;;;12.50;90.50;;;;;;5113757;28;20279;-80
2022/01/24 09:51:45;;;;;;;;;;;12.40;90.80;;;;;;5113771;28;19912;-80
2022/01/24 09:54:11;;;;;;;;;;;12.70;90.40;;;;;;5113738;28;19919;-80
2022/01/24 09:56:36;;;;;;;;;;;13.00;89.80;;;;;;5113705;28;19915;-80
2022/01/24 09:59:02;;;;;;;;;;;13.10;89.90;;;;;;5113672;28;20010;-80
2022/01/24 10:01:30;;;;;;;;;;;13.00;89.40;;;;;;5117101;28;19908;-80
2022/01/24 10:04:10;;;;;;;;;;;12.90;90.30;;;;;;5117586;28;19908;-80
2022/01/24 10:06:55;;;;;;;;;;;13.90;88.20;;;;;;5117474;28;19919;-80
2022/01/24 10:09:31;;;;;;;;;;;14.00;85.10;;;;;;5099141;28;19907;-81
2022/01/24 10:12:05;;;;;;;;;;;14.10;85.00;;;;;;5117349;28;19966;-80
2022/01/24 10:17:23;;;;;;;;;;;13.80;85.30;;;;;;5117496;28;20287;-79
2022/01/24 10:19:49;;;;;;;;;;;14.20;84.80;;;;;;5117241;28;19907;-80
2022/01/24 10:22:15;;;;;;;;;;;14.30;83.20;;;;;;5117299;28;19908;-81
2022/01/24 10:24:42;;;;;;;;;;;14.50;82.80;;;;;;5117077;28;19916;-80
2022/01/24 10:27:09;;;;;;;;;;;14.50;82.50;;;;;;5098756;28;19919;-81
2022/01/24 10:29:40;;;;;;;;;;;15.00;83.30;;;;;;5117052;28;19908;-80
2022/01/24 10:32:05;;;;;;;;;;;15.10;81.50;;;;;;5117084;28;19912;-81
2022/01/24 10:34:36;;;;;;;;;;;16.00;78.90;;;;;;5098631;28;19915;-80
2022/01/24 10:37:02;;;;;;;;;;;15.90;77.70;;;;;;5117323;28;20386;-80
2022/01/24 10:42:41;;;;;;;;;;;15.50;77.90;;;;;;5117007;28;20013;-80
2022/01/24 10:45:14;;;;;;;;;;;15.70;77.10;;;;;;5098104;28;19967;-80
2022/01/24 10:47:45;;;;;;;;;;;15.60;75.70;;;;;;5116980;28;19908;-80
2022/01/24 10:50:12;;;;;;;;;;;15.70;76.30;;;;;;5098161;28;19908;-80
2022/01/24 10:52:38;;;;;;;;;;;16.70;75.30;;;;;;5116489;28;19912;-80
2022/01/24 10:55:13;;;;;;;;;;;17.30;72.50;;;;;;5098259;28;19962;-80
2022/01/24 10:57:40;;;;;;;;;;;18.10;70.20;;;;;;5116491;28;19908;-80
2022/01/24 11:00:20;;;;;;;;;;;18.60;69.00;;;;;;5116505;28;19908;-80
2022/01/24 11:02:48;;;;;;;;;;;19.40;67.10;;;;;;5116385;28;19908;-80
2022/01/24 11:05:15;;;;;;;;;;;18.40;66.30;;;;;;5116385;28;19911;-80
2022/01/24 11:07:50;;;;;;;;;;;18.70;66.40;;;;;;5116451;28;19915;-81
2022/01/24 11:10:15;;;;;;;;;;;19.80;65.00;;;;;;5116323;28;19908;-80
2022/01/24 11:12:41;;;;;;;;;;;19.90;63.00;;;;;;5097699;28;19930;-80
2022/01/24 11:15:07;;;;;;;;;;;20.30;62.40;;;;;;5116538;28;19924;-80
2022/01/24 11:17:34;;;;;;;;;;;21.00;60.60;;;;;;5116482;28;19908;-80
2022/01/24 11:20:02;;;;;;;;;;;21.10;59.60;;;;;;5116308;28;19931;-80
2022/01/24 11:22:30;;;;;;;;;;;20.90;59.40;;;;;;5097751;28;19915;-80
2022/01/24 11:25:02;;;;;;;;;;;21.90;57.90;;;;;;5115943;28;20358;-80
2022/01/24 11:27:28;;;;;;;;;;;21.80;57.20;;;;;;5097411;28;19968;-80
2022/01/24 11:29:58;;;;;;;;;;;22.10;56.40;;;;;;5116019;28;19912;-80
2022/01/24 11:32:26;;;;;;;;;;;21.50;56.10;;;;;;5115846;28;19908;-80
2022/01/24 11:34:53;;;;;;;;;;;21.10;55.60;;;;;;5097504;28;19907;-80
2022/01/24 11:37:38;;;;;;;;;;;22.10;56.50;;;;;;5097472;28;19907;-80
2022/01/24 11:40:06;;;;;;;;;;;22.60;54.20;;;;;;5115916;28;19912;-79
2022/01/24 11:42:34;;;;;;;;;;;22.70;53.80;;;;;;5115790;28;19908;-79
2022/01/24 11:45:05;;;;;;;;;;;22.60;54.10;;;;;;5115526;28;19919;-79
2022/01/24 11:47:34;;;;;;;;;;;23.30;52.80;;;;;;5116079;28;19977;-79
2022/01/24 11:50:19;;;;;;;;;;;23.30;53.40;;;;;;5115459;28;19908;-80
2022/01/24 11:52:45;;;;;;;;;;;23.40;52.10;;;;;;5115207;28;19995;-79
2022/01/24 11:55:16;;;;;;;;;;;23.80;51.80;;;;;;5115326;28;20011;-80
2022/01/24 11:57:47;;;;;;;;;;;23.10;52.00;;;;;;5115680;28;20372;-80
2022/01/24 12:00:14;;;;;;;;;;;23.30;52.30;;;;;;5115425;28;20310;-80
2022/01/24 12:02:44;;;;;;;;;;;24.20;51.00;;;;;;5115214;28;19915;-80
2022/01/24 12:05:14;;;;;;;;;;;24.40;49.80;;;;;;5115460;28;19935;-80
2022/01/24 12:07:46;;;;;;;;;;;24.30;50.30;;;;;;5115088;28;19930;-80
2022/01/24 12:10:33;;;;;;;;;;;24.70;49.40;;;;;;5115107;28;20370;-80
2022/01/24 12:13:02;;;;;;;;;;;24.90;48.50;;;;;;5096272;28;19923;-80
2022/01/24 12:15:37;;;;;;;;;;;24.20;49.40;;;;;;5115118;28;19950;-80
2022/01/24 12:18:06;;;;;;;;;;;24.70;48.60;;;;;;5115034;28;19956;-80
2022/01/24 12:20:32;;;;;;;;;;;25.00;48.60;;;;;;5114797;28;20375;-80
2022/01/24 12:22:58;;;;;;;;;;;25.20;48.70;;;;;;5114489;28;19907;-80
2022/01/24 12:25:42;;;;;;;;;;;25.50;47.70;;;;;;5096377;28;20335;-80
2022/01/24 12:28:18;;;;;;;;;;;24.60;47.30;;;;;;5114730;28;19908;-80
2022/01/24 12:31:00;;;;;;;;;;;24.50;48.10;;;;;;5114612;28;19908;-80
2022/01/24 12:33:33;;;;;;;;;;;24.20;48.70;;;;;;5114636;28;20376;-80
2022/01/24 12:35:59;;;;;;;;;;;24.20;48.90;;;;;;5115005;28;19914;-80
2022/01/24 12:38:25;;;;;;;;;;;25.40;47.50;;;;;;5114617;28;19908;-80
2022/01/24 12:41:09;;;;;;;;;;;25.80;47.10;;;;;;5114507;28;19908;-80
2022/01/24 12:43:51;;;;;;;;;;;25.90;46.30;;;;;;5114696;28;19976;-80
2022/01/24 12:46:19;;;;;;;;;;;26.40;46.50;;;;;;5114671;28;20367;-80
2022/01/24 12:48:49;;;;;;;;;;;26.40;45.80;;;;;;5114399;28;19915;-80
2022/01/24 12:51:16;;;;;;;;;;;25.00;46.20;;;;;;5114777;28;19957;-80
2022/01/24 12:53:42;;;;;;;;;;;25.70;46.60;;;;;;5114393;28;19908;-81
2022/01/24 12:56:07;;;;;;;;;;;26.20;46.40;;;;;;5114416;28;20369;-80
2022/01/24 12:58:34;;;;;;;;;;;24.90;47.40;;;;;;5114335;28;19908;-80
2022/01/24 13:01:00;;;;;;;;;;;24.30;49.00;;;;;;5114295;28;19908;-79
2022/01/24 13:03:25;;;;;;;;;;;23.90;48.10;;;;;;5114418;28;20417;-80
2022/01/24 13:05:51;;;;;;;;;;;24.40;47.70;;;;;;5114240;28;19914;-80
2022/01/24 13:08:17;;;;;;;;;;;24.10;47.20;;;;;;5114402;28;19912;-80
2022/01/24 13:10:47;;;;;;;;;;;23.80;47.80;;;;;;5095954;28;19908;-80
2022/01/24 13:13:15;;;;;;;;;;;24.10;47.40;;;;;;5095642;28;19955;-80
2022/01/24 13:23:50;;;;;;;;;;;23.70;47.40;;;;;;5114217;28;19920;-80
2022/01/24 13:26:16;;;;;;;;;;;23.20;47.30;;;;;;5113996;28;19908;-80
2022/01/24 13:28:41;;;;;;;;;;;23.10;46.90;;;;;;5113987;28;19908;-80
2022/01/24 13:31:07;;;;;;;;;;;23.40;47.80;;;;;;5113956;28;19919;-80
2022/01/24 13:33:35;;;;;;;;;;;23.50;47.90;;;;;;5114337;28;19908;-80
2022/01/24 13:36:05;;;;;;;;;;;23.50;48.90;;;;;;5116585;28;20427;-81
2022/01/24 13:38:33;;;;;;;;;;;22.60;48.00;;;;;;5118031;28;19961;-80
2022/01/24 13:41:03;;;;;;;;;;;23.70;47.90;;;;;;5118394;28;19908;-81
2022/01/24 13:43:30;;;;;;;;;;;22.40;49.10;;;;;;5117869;28;19912;-80
2022/01/24 13:45:57;;;;;;;;;;;22.70;49.70;;;;;;5099662;28;19915;-80
2022/01/24 13:48:24;;;;;;;;;;;22.00;50.00;;;;;;5117989;28;19908;-80
2022/01/24 13:50:54;;;;;;;;;;;22.00;50.60;;;;;;5099557;28;19908;-80
2022/01/24 13:53:33;;;;;;;;;;;22.20;49.70;;;;;;5117729;28;19912;-81
2022/01/24 13:56:00;;;;;;;;;;;23.00;49.00;;;;;;5117968;28;19943;-80
2022/01/24 13:58:26;;;;;;;;;;;23.20;49.10;;;;;;5099317;28;19908;-81
2022/01/24 14:00:57;;;;;;;;;;;22.90;49.30;;;;;;5117609;28;19908;-81
2022/01/24 14:03:22;;;;;;;;;;;22.90;49.80;;;;;;5117529;28;19911;-80
2022/01/24 14:05:48;;;;;;;;;;;22.80;49.30;;;;;;5117818;28;19915;-80
2022/01/24 14:08:17;;;;;;;;;;;23.20;50.40;;;;;;5117533;28;20271;-80
2022/01/24 14:10:43;;;;;;;;;;;22.90;50.80;;;;;;5117618;28;19908;-80
2022/01/24 14:13:09;;;;;;;;;;;23.10;50.90;;;;;;5098872;28;19922;-80
2022/01/24 14:20:43;;;;;;;;;;;23.00;51.00;;;;;;5117024;28;19912;-80
2022/01/24 14:23:21;;;;;;;;;;;23.50;51.10;;;;;;5117111;28;19998;-80
2022/01/24 14:25:46;;;;;;;;;;;23.20;51.50;;;;;;5117176;28;19908;-80
2022/01/24 14:28:13;;;;;;;;;;;23.30;50.40;;;;;;5117194;28;19908;-80
2022/01/24 14:30:40;;;;;;;;;;;23.20;50.00;;;;;;5117067;28;19908;-80
2022/01/24 14:33:06;;;;;;;;;;;23.40;50.80;;;;;;5098685;28;20429;-80
2022/01/24 14:35:38;;;;;;;;;;;23.40;50.50;;;;;;5117157;28;19912;-80
2022/01/24 14:38:05;;;;;;;;;;;22.40;51.10;;;;;;5116922;28;19915;-80
2022/01/24 14:40:31;;;;;;;;;;;22.30;51.50;;;;;;5098575;28;19912;-80
2022/01/24 14:44:53;;;;;;;;;;;22.10;51.50;;;;;;5117161;28;20045;-80
2022/01/24 14:45:43;;;;;;;;;;;22.10;52.10;;;;;;5115878;28;19951;-79
2022/01/24 14:48:08;;;;;;;;;;;22.30;51.30;;;;;;5116800;28;19989;-80
2022/01/24 14:50:34;;;;;;;;;;;21.70;51.80;;;;;;5116643;28;20016;-79
2022/01/24 14:53:04;;;;;;;;;;;21.30;53.00;;;;;;5098235;28;19908;-81
2022/01/24 14:55:30;;;;;;;;;;;21.60;53.10;;;;;;5116549;28;19938;-79
2022/01/24 14:57:55;;;;;;;;;;;22.40;52.10;;;;;;5116684;28;19914;-80
2022/01/24 15:00:21;;;;;;;;;;;21.80;52.70;;;;;;5116663;28;19998;-80
2022/01/24 15:02:47;;;;;;;;;;;22.30;51.60;;;;;;5116449;28;19961;-79
2022/01/24 15:05:12;;;;;;;;;;;22.40;51.40;;;;;;5116759;28;19954;-80
2022/01/24 15:07:38;;;;;;;;;;;22.20;51.30;;;;;;5116338;28;19977;-80
2022/01/24 15:10:04;;;;;;;;;;;22.10;51.00;;;;;;5116341;28;19982;-80
2022/01/24 15:12:30;;;;;;;;;;;20.90;51.90;;;;;;5116204;28;20336;-79
2022/01/24 15:14:59;;;;;;;;;;;21.10;52.60;;;;;;5094126;28;20328;-79
2022/01/24 15:23:56;;;;;;;;;;;21.80;52.30;;;;;;5094524;28;20345;-80
2022/01/24 15:25:42;;;;;;;;;;;21.50;51.70;;;;;;5095655;28;19919;-79
2022/01/24 15:28:08;;;;;;;;;;;20.60;53.20;;;;;;5095550;28;19939;-80
2022/01/24 15:30:34;;;;;;;;;;;20.50;53.60;;;;;;5094281;28;20334;-79
2022/01/24 15:33:01;;;;;;;;;;;19.80;55.30;;;;;;5095491;28;19908;-80
2022/01/24 15:35:27;;;;;;;;;;;19.90;55.00;;;;;;5095441;28;19908;-79
2022/01/24 15:37:53;;;;;;;;;;;19.70;54.60;;;;;;5095431;28;19915;-79
2022/01/24 15:40:19;;;;;;;;;;;19.90;54.90;;;;;;5095317;28;19908;-79
2022/01/24 15:42:55;;;;;;;;;;;20.10;55.20;;;;;;5095511;28;19915;-79
2022/01/24 15:45:54;;;;;;;;;;;20.10;54.80;;;;;;5093604;28;19935;-79
2022/01/24 15:48:10;;;;;;;;;;;19.90;54.90;;;;;;5094886;28;20360;-79
2022/01/24 15:50:37;;;;;;;;;;;19.70;55.50;;;;;;5095624;28;19908;-79
2022/01/24 15:53:03;;;;;;;;;;;19.20;56.30;;;;;;5095005;28;19908;-79
2022/01/24 15:55:31;;;;;;;;;;;18.70;57.30;;;;;;5095312;28;19912;-79
2022/01/24 15:57:58;;;;;;;;;;;18.80;57.90;;;;;;5094135;28;19970;-79
2022/01/24 16:00:36;;;;;;;;;;;18.70;58.20;;;;;;5094908;28;19909;-79
2022/01/24 16:03:04;;;;;;;;;;;17.80;59.10;;;;;;5095074;28;20328;-79
2022/01/24 16:05:30;;;;;;;;;;;17.90;59.40;;;;;;5094837;28;19908;-79
2022/01/24 16:07:58;;;;;;;;;;;17.80;59.90;;;;;;5094872;28;19959;-79
2022/01/24 16:10:26;;;;;;;;;;;17.50;61.20;;;;;;5094795;28;19908;-79
2022/01/24 16:12:52;;;;;;;;;;;17.30;60.30;;;;;;5096134;28;19951;-79
2022/01/24 16:15:22;;;;;;;;;;;17.00;61.00;;;;;;5115131;28;19914;-79
2022/01/24 16:17:48;;;;;;;;;;;16.60;61.50;;;;;;5114954;28;19912;-79
2022/01/24 16:20:34;;;;;;;;;;;16.10;62.70;;;;;;5096647;28;20363;-79
2022/01/24 16:23:16;;;;;;;;;;;15.70;63.40;;;;;;5096344;28;19914;-79
2022/01/24 16:25:44;;;;;;;;;;;15.60;64.10;;;;;;5096222;28;20018;-78
2022/01/24 16:28:18;;;;;;;;;;;15.00;65.40;;;;;;5096523;28;19908;-79
2022/01/24 16:30:46;;;;;;;;;;;14.60;66.90;;;;;;5096449;28;19907;-79